sensor_id;sensor_type;location;lat;lon;timestamp;P1;durP1;ratioP1;P2;durP2;ratioP2
26502;SDS011;14177;51.520;6.764;2023-05-07T00:00:02;12.48;;;8.35;;
26502;SDS011;14177;51.520;6.764;2023-05-07T00:02:34;13.13;;;8.68;;
26502;SDS011;14177;51.520;6.764;2023-05-07T00:05:02;11.07;;;8.88;;
26502;SDS011;14177;51.520;6.764;2023-05-07T00:07:30;13.40;;;8.85;;
26502;SDS011;14177;51.520;6.764;2023-05-07T00:09:57;12.15;;;9.15;;
26502;SDS011;14177;51.520;6.764;2023-05-07T00:12:24;15.75;;;9.75;;
26502;SDS011;14177;51.520;6.764;2023-05-07T00:14:51;14.85;;;9.18;;
26502;SDS011;14177;51.520;6.764;2023-05-07T00:17:18;12.38;;;8.63;;
26502;SDS011;14177;51.520;6.764;2023-05-07T00:19:46;11.05;;;9.32;;
26502;SDS011;14177;51.520;6.764;2023-05-07T00:22:12;11.02;;;9.07;;
26502;SDS011;14177;51.520;6.764;2023-05-07T00:24:39;13.65;;;8.73;;
26502;SDS011;14177;51.520;6.764;2023-05-07T00:27:06;12.57;;;9.02;;
26502;SDS011;14177;51.520;6.764;2023-05-07T00:29:33;14.88;;;9.05;;
26502;SDS011;14177;51.520;6.764;2023-05-07T00:32:00;12.57;;;8.55;;
26502;SDS011;14177;51.520;6.764;2023-05-07T00:34:27;11.27;;;8.98;;
26502;SDS011;14177;51.520;6.764;2023-05-07T00:36:54;13.88;;;9.90;;
26502;SDS011;14177;51.520;6.764;2023-05-07T00:39:21;14.35;;;8.77;;
26502;SDS011;14177;51.520;6.764;2023-05-07T00:41:48;15.93;;;8.95;;
26502;SDS011;14177;51.520;6.764;2023-05-07T00:44:15;11.85;;;9.07;;
26502;SDS011;14177;51.520;6.764;2023-05-07T00:46:42;14.10;;;9.90;;
26502;SDS011;14177;51.520;6.764;2023-05-07T00:49:09;12.68;;;9.25;;
26502;SDS011;14177;51.520;6.764;2023-05-07T00:51:37;11.57;;;8.60;;
26502;SDS011;14177;51.520;6.764;2023-05-07T00:54:04;14.55;;;9.15;;
26502;SDS011;14177;51.520;6.764;2023-05-07T00:56:32;14.20;;;9.38;;
26502;SDS011;14177;51.520;6.764;2023-05-07T00:58:59;10.85;;;9.23;;
26502;SDS011;14177;51.520;6.764;2023-05-07T01:01:28;12.88;;;9.13;;
26502;SDS011;14177;51.520;6.764;2023-05-07T01:03:56;11.60;;;8.95;;
26502;SDS011;14177;51.520;6.764;2023-05-07T01:06:24;12.15;;;9.38;;
26502;SDS011;14177;51.520;6.764;2023-05-07T01:08:54;14.75;;;9.20;;
26502;SDS011;14177;51.520;6.764;2023-05-07T01:11:24;13.38;;;9.60;;
26502;SDS011;14177;51.520;6.764;2023-05-07T01:13:53;10.50;;;7.97;;
26502;SDS011;14177;51.520;6.764;2023-05-07T01:16:25;12.75;;;8.85;;
26502;SDS011;14177;51.520;6.764;2023-05-07T01:18:57;13.57;;;9.82;;
26502;SDS011;14177;51.520;6.764;2023-05-07T01:24:06;11.35;;;8.93;;
26502;SDS011;14177;51.520;6.764;2023-05-07T01:26:37;12.50;;;9.13;;
26502;SDS011;14177;51.520;6.764;2023-05-07T01:29:07;12.27;;;9.20;;
26502;SDS011;14177;51.520;6.764;2023-05-07T01:31:36;13.52;;;10.13;;
26502;SDS011;14177;51.520;6.764;2023-05-07T01:34:07;11.77;;;9.80;;
26502;SDS011;14177;51.520;6.764;2023-05-07T01:36:38;15.70;;;10.20;;
26502;SDS011;14177;51.520;6.764;2023-05-07T01:39:07;13.98;;;10.05;;
26502;SDS011;14177;51.520;6.764;2023-05-07T01:46:50;12.73;;;9.65;;
26502;SDS011;14177;51.520;6.764;2023-05-07T01:49:20;14.52;;;9.70;;
26502;SDS011;14177;51.520;6.764;2023-05-07T01:51:47;14.00;;;10.23;;
26502;SDS011;14177;51.520;6.764;2023-05-07T01:54:15;14.80;;;9.43;;
26502;SDS011;14177;51.520;6.764;2023-05-07T01:56:43;15.20;;;8.40;;
26502;SDS011;14177;51.520;6.764;2023-05-07T01:59:10;14.43;;;9.32;;
26502;SDS011;14177;51.520;6.764;2023-05-07T02:01:37;16.23;;;10.07;;
26502;SDS011;14177;51.520;6.764;2023-05-07T02:04:04;15.90;;;10.50;;
26502;SDS011;14177;51.520;6.764;2023-05-07T02:06:31;15.00;;;10.35;;
26502;SDS011;14177;51.520;6.764;2023-05-07T02:09:02;15.60;;;10.40;;
26502;SDS011;14177;51.520;6.764;2023-05-07T02:11:29;16.20;;;11.15;;
26502;SDS011;14177;51.520;6.764;2023-05-07T02:13:56;15.05;;;10.98;;
26502;SDS011;14177;51.520;6.764;2023-05-07T02:16:23;12.25;;;9.32;;
26502;SDS011;14177;51.520;6.764;2023-05-07T02:18:51;16.13;;;10.57;;
26502;SDS011;14177;51.520;6.764;2023-05-07T02:21:18;16.52;;;10.32;;
26502;SDS011;14177;51.520;6.764;2023-05-07T02:23:46;14.35;;;10.68;;
26502;SDS011;14177;51.520;6.764;2023-05-07T02:26:13;15.13;;;10.98;;
26502;SDS011;14177;51.520;6.764;2023-05-07T02:28:39;16.25;;;11.13;;
26502;SDS011;14177;51.520;6.764;2023-05-07T02:31:06;13.77;;;10.52;;
26502;SDS011;14177;51.520;6.764;2023-05-07T02:33:34;15.10;;;10.23;;
26502;SDS011;14177;51.520;6.764;2023-05-07T02:36:07;15.57;;;10.82;;
26502;SDS011;14177;51.520;6.764;2023-05-07T02:38:44;14.57;;;10.43;;
26502;SDS011;14177;51.520;6.764;2023-05-07T02:41:11;15.75;;;12.30;;
26502;SDS011;14177;51.520;6.764;2023-05-07T02:43:38;15.55;;;11.73;;
26502;SDS011;14177;51.520;6.764;2023-05-07T02:46:06;16.40;;;11.32;;
26502;SDS011;14177;51.520;6.764;2023-05-07T02:48:38;17.55;;;12.20;;
26502;SDS011;14177;51.520;6.764;2023-05-07T02:51:05;16.90;;;12.70;;
26502;SDS011;14177;51.520;6.764;2023-05-07T02:53:34;17.38;;;12.25;;
26502;SDS011;14177;51.520;6.764;2023-05-07T02:56:01;21.88;;;13.02;;
26502;SDS011;14177;51.520;6.764;2023-05-07T02:58:28;18.10;;;12.15;;
26502;SDS011;14177;51.520;6.764;2023-05-07T03:00:57;18.55;;;13.23;;
26502;SDS011;14177;51.520;6.764;2023-05-07T03:03:34;17.70;;;13.23;;
26502;SDS011;14177;51.520;6.764;2023-05-07T03:06:02;18.13;;;13.07;;
26502;SDS011;14177;51.520;6.764;2023-05-07T03:08:29;20.25;;;13.68;;
26502;SDS011;14177;51.520;6.764;2023-05-07T03:10:59;17.35;;;13.13;;
26502;SDS011;14177;51.520;6.764;2023-05-07T03:13:26;18.73;;;12.77;;
26502;SDS011;14177;51.520;6.764;2023-05-07T03:15:53;22.65;;;12.88;;
26502;SDS011;14177;51.520;6.764;2023-05-07T03:18:20;19.45;;;13.65;;
26502;SDS011;14177;51.520;6.764;2023-05-07T03:20:47;18.98;;;13.40;;
26502;SDS011;14177;51.520;6.764;2023-05-07T03:23:16;15.95;;;12.68;;
26502;SDS011;14177;51.520;6.764;2023-05-07T03:25:43;17.80;;;13.18;;
26502;SDS011;14177;51.520;6.764;2023-05-07T03:28:10;20.20;;;13.30;;
26502;SDS011;14177;51.520;6.764;2023-05-07T03:30:42;21.27;;;13.15;;
26502;SDS011;14177;51.520;6.764;2023-05-07T03:33:09;19.25;;;14.15;;
26502;SDS011;14177;51.520;6.764;2023-05-07T03:35:37;18.88;;;13.90;;
26502;SDS011;14177;51.520;6.764;2023-05-07T03:38:04;18.73;;;13.13;;
26502;SDS011;14177;51.520;6.764;2023-05-07T03:40:34;18.08;;;11.68;;
26502;SDS011;14177;51.520;6.764;2023-05-07T03:43:02;19.33;;;13.73;;
26502;SDS011;14177;51.520;6.764;2023-05-07T03:45:31;18.90;;;14.02;;
26502;SDS011;14177;51.520;6.764;2023-05-07T03:48:20;17.58;;;13.07;;
26502;SDS011;14177;51.520;6.764;2023-05-07T03:50:49;17.92;;;13.70;;
26502;SDS011;14177;51.520;6.764;2023-05-07T03:53:18;18.20;;;13.23;;
26502;SDS011;14177;51.520;6.764;2023-05-07T03:55:45;19.30;;;14.18;;
26502;SDS011;14177;51.520;6.764;2023-05-07T03:58:12;19.20;;;14.18;;
26502;SDS011;14177;51.520;6.764;2023-05-07T04:00:39;18.58;;;13.95;;
26502;SDS011;14177;51.520;6.764;2023-05-07T04:03:32;18.65;;;13.77;;
26502;SDS011;14177;51.520;6.764;2023-05-07T04:06:31;19.27;;;13.90;;
26502;SDS011;14177;51.520;6.764;2023-05-07T04:09:11;16.10;;;13.02;;
26502;SDS011;14177;51.520;6.764;2023-05-07T04:16:55;18.63;;;13.93;;
26502;SDS011;14177;51.520;6.764;2023-05-07T04:19:34;20.23;;;13.27;;
26502;SDS011;14177;51.520;6.764;2023-05-07T04:22:16;18.45;;;13.25;;
26502;SDS011;14177;51.520;6.764;2023-05-07T04:24:46;20.15;;;14.38;;
26502;SDS011;14177;51.520;6.764;2023-05-07T04:27:19;18.60;;;13.85;;
26502;SDS011;14177;51.520;6.764;2023-05-07T04:29:51;21.20;;;14.75;;
26502;SDS011;14177;51.520;6.764;2023-05-07T04:32:27;22.25;;;14.38;;
26502;SDS011;14177;51.520;6.764;2023-05-07T04:35:08;22.30;;;13.90;;
26502;SDS011;14177;51.520;6.764;2023-05-07T04:37:48;22.63;;;13.85;;
26502;SDS011;14177;51.520;6.764;2023-05-07T04:40:26;21.73;;;14.45;;
26502;SDS011;14177;51.520;6.764;2023-05-07T04:43:18;23.27;;;14.57;;
26502;SDS011;14177;51.520;6.764;2023-05-07T04:45:57;19.90;;;13.95;;
26502;SDS011;14177;51.520;6.764;2023-05-07T04:48:34;22.15;;;15.80;;
26502;SDS011;14177;51.520;6.764;2023-05-07T04:51:17;19.52;;;14.20;;
26502;SDS011;14177;51.520;6.764;2023-05-07T04:54:01;21.35;;;15.02;;
26502;SDS011;14177;51.520;6.764;2023-05-07T04:56:51;20.77;;;14.95;;
26502;SDS011;14177;51.520;6.764;2023-05-07T04:59:33;18.42;;;14.27;;
26502;SDS011;14177;51.520;6.764;2023-05-07T05:02:10;21.15;;;14.30;;
26502;SDS011;14177;51.520;6.764;2023-05-07T05:04:44;20.05;;;14.27;;
26502;SDS011;14177;51.520;6.764;2023-05-07T05:07:17;20.73;;;13.75;;
26502;SDS011;14177;51.520;6.764;2023-05-07T05:09:49;21.85;;;15.32;;
26502;SDS011;14177;51.520;6.764;2023-05-07T05:12:22;19.92;;;13.68;;
26502;SDS011;14177;51.520;6.764;2023-05-07T05:15:02;19.95;;;14.50;;
26502;SDS011;14177;51.520;6.764;2023-05-07T05:17:52;19.38;;;13.77;;
26502;SDS011;14177;51.520;6.764;2023-05-07T05:20:19;24.33;;;15.38;;
26502;SDS011;14177;51.520;6.764;2023-05-07T05:22:56;22.42;;;14.85;;
26502;SDS011;14177;51.520;6.764;2023-05-07T05:25:26;22.05;;;14.90;;
26502;SDS011;14177;51.520;6.764;2023-05-07T05:27:55;22.10;;;14.85;;
26502;SDS011;14177;51.520;6.764;2023-05-07T05:30:23;23.95;;;15.35;;
26502;SDS011;14177;51.520;6.764;2023-05-07T05:32:50;23.90;;;15.55;;
26502;SDS011;14177;51.520;6.764;2023-05-07T05:35:18;24.50;;;15.13;;
26502;SDS011;14177;51.520;6.764;2023-05-07T05:37:45;23.63;;;15.77;;
26502;SDS011;14177;51.520;6.764;2023-05-07T05:40:12;25.77;;;16.98;;
26502;SDS011;14177;51.520;6.764;2023-05-07T05:42:40;35.20;;;17.23;;
26502;SDS011;14177;51.520;6.764;2023-05-07T05:45:09;26.35;;;16.35;;
26502;SDS011;14177;51.520;6.764;2023-05-07T05:47:37;28.48;;;17.13;;
26502;SDS011;14177;51.520;6.764;2023-05-07T05:50:06;27.33;;;18.08;;
26502;SDS011;14177;51.520;6.764;2023-05-07T05:52:34;26.30;;;16.75;;
26502;SDS011;14177;51.520;6.764;2023-05-07T05:55:01;28.80;;;17.55;;
26502;SDS011;14177;51.520;6.764;2023-05-07T05:57:29;26.20;;;16.42;;
26502;SDS011;14177;51.520;6.764;2023-05-07T05:59:56;29.65;;;16.92;;
26502;SDS011;14177;51.520;6.764;2023-05-07T06:02:24;26.20;;;15.85;;
26502;SDS011;14177;51.520;6.764;2023-05-07T06:04:51;25.30;;;15.57;;
26502;SDS011;14177;51.520;6.764;2023-05-07T06:07:21;24.00;;;15.40;;
26502;SDS011;14177;51.520;6.764;2023-05-07T06:09:48;24.67;;;15.10;;
26502;SDS011;14177;51.520;6.764;2023-05-07T06:12:15;23.65;;;14.75;;
26502;SDS011;14177;51.520;6.764;2023-05-07T06:14:45;22.73;;;13.82;;
26502;SDS011;14177;51.520;6.764;2023-05-07T06:17:12;27.52;;;13.55;;
26502;SDS011;14177;51.520;6.764;2023-05-07T06:19:39;22.23;;;12.95;;
26502;SDS011;14177;51.520;6.764;2023-05-07T06:22:06;22.15;;;12.80;;
26502;SDS011;14177;51.520;6.764;2023-05-07T06:24:34;19.55;;;12.80;;
26502;SDS011;14177;51.520;6.764;2023-05-07T06:27:03;18.52;;;11.95;;
26502;SDS011;14177;51.520;6.764;2023-05-07T06:29:31;18.23;;;11.23;;
26502;SDS011;14177;51.520;6.764;2023-05-07T06:32:11;17.00;;;11.50;;
26502;SDS011;14177;51.520;6.764;2023-05-07T06:34:42;17.17;;;11.13;;
26502;SDS011;14177;51.520;6.764;2023-05-07T06:37:09;17.67;;;10.68;;
26502;SDS011;14177;51.520;6.764;2023-05-07T06:39:47;15.07;;;9.85;;
26502;SDS011;14177;51.520;6.764;2023-05-07T06:42:15;12.68;;;8.82;;
26502;SDS011;14177;51.520;6.764;2023-05-07T06:44:45;13.30;;;8.73;;
26502;SDS011;14177;51.520;6.764;2023-05-07T06:47:14;14.75;;;8.20;;
26502;SDS011;14177;51.520;6.764;2023-05-07T06:49:44;14.07;;;8.38;;
26502;SDS011;14177;51.520;6.764;2023-05-07T06:52:14;14.93;;;8.27;;
26502;SDS011;14177;51.520;6.764;2023-05-07T06:54:42;11.35;;;7.43;;
26502;SDS011;14177;51.520;6.764;2023-05-07T06:57:09;13.10;;;7.93;;
26502;SDS011;14177;51.520;6.764;2023-05-07T06:59:36;11.05;;;7.10;;
26502;SDS011;14177;51.520;6.764;2023-05-07T07:02:03;11.25;;;7.43;;
26502;SDS011;14177;51.520;6.764;2023-05-07T07:04:30;10.02;;;6.70;;
26502;SDS011;14177;51.520;6.764;2023-05-07T07:07:02;11.10;;;6.95;;
26502;SDS011;14177;51.520;6.764;2023-05-07T07:09:29;10.82;;;7.18;;
26502;SDS011;14177;51.520;6.764;2023-05-07T07:11:59;10.15;;;6.47;;
26502;SDS011;14177;51.520;6.764;2023-05-07T07:14:26;9.15;;;6.28;;
26502;SDS011;14177;51.520;6.764;2023-05-07T07:16:55;9.85;;;6.30;;
26502;SDS011;14177;51.520;6.764;2023-05-07T07:19:35;10.13;;;6.78;;
26502;SDS011;14177;51.520;6.764;2023-05-07T07:22:02;10.55;;;6.10;;
26502;SDS011;14177;51.520;6.764;2023-05-07T07:24:30;8.98;;;5.90;;
26502;SDS011;14177;51.520;6.764;2023-05-07T07:27:01;7.90;;;5.60;;
26502;SDS011;14177;51.520;6.764;2023-05-07T07:29:28;9.07;;;5.93;;
26502;SDS011;14177;51.520;6.764;2023-05-07T07:31:55;9.85;;;5.53;;
26502;SDS011;14177;51.520;6.764;2023-05-07T07:34:23;9.55;;;5.80;;
26502;SDS011;14177;51.520;6.764;2023-05-07T07:36:50;10.05;;;5.18;;
26502;SDS011;14177;51.520;6.764;2023-05-07T07:39:18;9.27;;;5.32;;
26502;SDS011;14177;51.520;6.764;2023-05-07T07:41:47;7.70;;;4.80;;
26502;SDS011;14177;51.520;6.764;2023-05-07T07:44:15;8.27;;;5.15;;
26502;SDS011;14177;51.520;6.764;2023-05-07T07:46:48;8.48;;;4.93;;
26502;SDS011;14177;51.520;6.764;2023-05-07T07:49:17;8.00;;;4.07;;
26502;SDS011;14177;51.520;6.764;2023-05-07T07:51:44;7.15;;;4.50;;
26502;SDS011;14177;51.520;6.764;2023-05-07T07:54:12;7.97;;;4.28;;
26502;SDS011;14177;51.520;6.764;2023-05-07T07:56:40;6.65;;;4.15;;
26502;SDS011;14177;51.520;6.764;2023-05-07T07:59:08;5.78;;;3.35;;
26502;SDS011;14177;51.520;6.764;2023-05-07T08:01:37;7.20;;;3.75;;
26502;SDS011;14177;51.520;6.764;2023-05-07T08:04:04;6.38;;;3.75;;
26502;SDS011;14177;51.520;6.764;2023-05-07T08:06:36;4.15;;;3.17;;
26502;SDS011;14177;51.520;6.764;2023-05-07T08:09:04;8.07;;;3.65;;
26502;SDS011;14177;51.520;6.764;2023-05-07T08:11:31;4.80;;;3.22;;
26502;SDS011;14177;51.520;6.764;2023-05-07T08:13:58;5.78;;;3.83;;
26502;SDS011;14177;51.520;6.764;2023-05-07T08:16:25;6.25;;;3.05;;
26502;SDS011;14177;51.520;6.764;2023-05-07T08:18:53;4.75;;;3.15;;
26502;SDS011;14177;51.520;6.764;2023-05-07T08:21:20;4.47;;;2.75;;
26502;SDS011;14177;51.520;6.764;2023-05-07T08:23:48;5.63;;;2.80;;
26502;SDS011;14177;51.520;6.764;2023-05-07T08:26:16;6.47;;;2.72;;
26502;SDS011;14177;51.520;6.764;2023-05-07T08:28:42;6.22;;;2.60;;
26502;SDS011;14177;51.520;6.764;2023-05-07T08:31:09;4.00;;;2.55;;
26502;SDS011;14177;51.520;6.764;2023-05-07T08:33:39;6.25;;;2.88;;
26502;SDS011;14177;51.520;6.764;2023-05-07T08:36:06;3.80;;;2.65;;
26502;SDS011;14177;51.520;6.764;2023-05-07T08:38:33;4.78;;;2.55;;
26502;SDS011;14177;51.520;6.764;2023-05-07T08:41:01;5.78;;;2.60;;
26502;SDS011;14177;51.520;6.764;2023-05-07T08:43:29;4.40;;;2.40;;
26502;SDS011;14177;51.520;6.764;2023-05-07T08:46:02;5.88;;;2.95;;
26502;SDS011;14177;51.520;6.764;2023-05-07T08:48:36;4.90;;;2.63;;
26502;SDS011;14177;51.520;6.764;2023-05-07T08:51:08;6.95;;;2.30;;
26502;SDS011;14177;51.520;6.764;2023-05-07T08:53:40;4.68;;;2.60;;
26502;SDS011;14177;51.520;6.764;2023-05-07T08:56:11;4.60;;;3.00;;
26502;SDS011;14177;51.520;6.764;2023-05-07T08:58:39;4.65;;;2.78;;
26502;SDS011;14177;51.520;6.764;2023-05-07T09:01:10;6.18;;;2.67;;
26502;SDS011;14177;51.520;6.764;2023-05-07T09:03:42;5.47;;;2.75;;
26502;SDS011;14177;51.520;6.764;2023-05-07T09:06:13;4.55;;;2.65;;
26502;SDS011;14177;51.520;6.764;2023-05-07T09:08:43;4.80;;;2.67;;
26502;SDS011;14177;51.520;6.764;2023-05-07T09:11:22;4.57;;;2.15;;
26502;SDS011;14177;51.520;6.764;2023-05-07T09:13:55;6.70;;;2.70;;
26502;SDS011;14177;51.520;6.764;2023-05-07T09:16:25;4.47;;;2.35;;
26502;SDS011;14177;51.520;6.764;2023-05-07T09:18:53;7.65;;;2.70;;
26502;SDS011;14177;51.520;6.764;2023-05-07T09:21:22;4.68;;;2.35;;
26502;SDS011;14177;51.520;6.764;2023-05-07T09:23:51;7.45;;;2.42;;
26502;SDS011;14177;51.520;6.764;2023-05-07T09:26:24;4.32;;;2.75;;
26502;SDS011;14177;51.520;6.764;2023-05-07T09:28:51;5.10;;;2.65;;
26502;SDS011;14177;51.520;6.764;2023-05-07T09:31:19;6.93;;;2.45;;
26502;SDS011;14177;51.520;6.764;2023-05-07T09:33:48;5.13;;;2.55;;
26502;SDS011;14177;51.520;6.764;2023-05-07T09:36:16;4.47;;;2.42;;
26502;SDS011;14177;51.520;6.764;2023-05-07T09:38:45;7.60;;;2.13;;
26502;SDS011;14177;51.520;6.764;2023-05-07T09:41:13;3.10;;;2.40;;
26502;SDS011;14177;51.520;6.764;2023-05-07T09:43:55;3.88;;;2.33;;
26502;SDS011;14177;51.520;6.764;2023-05-07T09:46:28;3.60;;;2.58;;
26502;SDS011;14177;51.520;6.764;2023-05-07T09:49:05;5.53;;;2.30;;
26502;SDS011;14177;51.520;6.764;2023-05-07T09:51:45;4.68;;;2.33;;
26502;SDS011;14177;51.520;6.764;2023-05-07T09:54:17;5.57;;;2.30;;
26502;SDS011;14177;51.520;6.764;2023-05-07T09:56:48;3.67;;;2.33;;
26502;SDS011;14177;51.520;6.764;2023-05-07T09:59:17;5.65;;;2.30;;
26502;SDS011;14177;51.520;6.764;2023-05-07T10:01:47;6.22;;;2.03;;
26502;SDS011;14177;51.520;6.764;2023-05-07T10:04:18;4.07;;;1.95;;
26502;SDS011;14177;51.520;6.764;2023-05-07T10:06:47;5.25;;;2.40;;
26502;SDS011;14177;51.520;6.764;2023-05-07T10:09:15;4.55;;;2.05;;
26502;SDS011;14177;51.520;6.764;2023-05-07T10:11:42;4.22;;;2.80;;
26502;SDS011;14177;51.520;6.764;2023-05-07T10:14:10;5.25;;;2.42;;
26502;SDS011;14177;51.520;6.764;2023-05-07T10:16:40;5.50;;;2.40;;
26502;SDS011;14177;51.520;6.764;2023-05-07T10:19:13;4.95;;;3.15;;
26502;SDS011;14177;51.520;6.764;2023-05-07T10:22:03;4.05;;;2.50;;
26502;SDS011;14177;51.520;6.764;2023-05-07T10:24:38;3.25;;;2.35;;
26502;SDS011;14177;51.520;6.764;2023-05-07T10:27:11;7.03;;;2.38;;
26502;SDS011;14177;51.520;6.764;2023-05-07T10:30:05;4.90;;;2.15;;
26502;SDS011;14177;51.520;6.764;2023-05-07T10:32:43;4.63;;;2.03;;
26502;SDS011;14177;51.520;6.764;2023-05-07T10:35:24;4.40;;;2.17;;
26502;SDS011;14177;51.520;6.764;2023-05-07T10:38:00;3.17;;;1.88;;
26502;SDS011;14177;51.520;6.764;2023-05-07T10:40:33;4.10;;;1.80;;
26502;SDS011;14177;51.520;6.764;2023-05-07T10:43:02;4.65;;;1.55;;
26502;SDS011;14177;51.520;6.764;2023-05-07T10:45:40;3.58;;;2.13;;
26502;SDS011;14177;51.520;6.764;2023-05-07T10:51:19;5.60;;;2.13;;
26502;SDS011;14177;51.520;6.764;2023-05-07T10:56:48;3.55;;;1.73;;
26502;SDS011;14177;51.520;6.764;2023-05-07T11:02:05;3.75;;;1.75;;
26502;SDS011;14177;51.520;6.764;2023-05-07T11:05:18;3.38;;;1.58;;
26502;SDS011;14177;51.520;6.764;2023-05-07T11:08:12;3.60;;;1.90;;
26502;SDS011;14177;51.520;6.764;2023-05-07T11:10:52;3.25;;;1.73;;
26502;SDS011;14177;51.520;6.764;2023-05-07T11:13:46;3.22;;;1.35;;
26502;SDS011;14177;51.520;6.764;2023-05-07T11:16:32;4.75;;;1.95;;
26502;SDS011;14177;51.520;6.764;2023-05-07T11:19:47;3.10;;;1.58;;
26502;SDS011;14177;51.520;6.764;2023-05-07T11:22:54;5.53;;;1.80;;
26502;SDS011;14177;51.520;6.764;2023-05-07T11:25:31;2.75;;;1.67;;
26502;SDS011;14177;51.520;6.764;2023-05-07T11:28:09;4.78;;;1.58;;
26502;SDS011;14177;51.520;6.764;2023-05-07T11:30:55;2.78;;;1.33;;
26502;SDS011;14177;51.520;6.764;2023-05-07T11:33:24;3.63;;;1.45;;
26502;SDS011;14177;51.520;6.764;2023-05-07T11:35:56;3.72;;;1.63;;
26502;SDS011;14177;51.520;6.764;2023-05-07T11:38:30;3.08;;;1.80;;
26502;SDS011;14177;51.520;6.764;2023-05-07T11:41:02;3.97;;;1.42;;
26502;SDS011;14177;51.520;6.764;2023-05-07T11:43:31;5.13;;;1.90;;
26502;SDS011;14177;51.520;6.764;2023-05-07T11:46:09;3.05;;;1.77;;
26502;SDS011;14177;51.520;6.764;2023-05-07T11:48:38;3.95;;;1.90;;
26502;SDS011;14177;51.520;6.764;2023-05-07T11:51:05;3.05;;;1.33;;
26502;SDS011;14177;51.520;6.764;2023-05-07T11:53:39;2.75;;;1.90;;
26502;SDS011;14177;51.520;6.764;2023-05-07T11:56:09;4.90;;;1.88;;
26502;SDS011;14177;51.520;6.764;2023-05-07T11:58:39;5.43;;;1.50;;
26502;SDS011;14177;51.520;6.764;2023-05-07T12:01:08;2.42;;;1.67;;
26502;SDS011;14177;51.520;6.764;2023-05-07T12:03:39;4.82;;;1.30;;
26502;SDS011;14177;51.520;6.764;2023-05-07T12:08:41;2.95;;;1.70;;
26502;SDS011;14177;51.520;6.764;2023-05-07T12:11:13;2.83;;;1.40;;
26502;SDS011;14177;51.520;6.764;2023-05-07T12:13:43;2.55;;;1.42;;
26502;SDS011;14177;51.520;6.764;2023-05-07T12:16:11;2.33;;;1.30;;
26502;SDS011;14177;51.520;6.764;2023-05-07T12:18:38;2.92;;;1.27;;
26502;SDS011;14177;51.520;6.764;2023-05-07T12:21:06;4.90;;;1.30;;
26502;SDS011;14177;51.520;6.764;2023-05-07T12:23:34;2.65;;;1.40;;
26502;SDS011;14177;51.520;6.764;2023-05-07T12:26:03;5.03;;;1.77;;
26502;SDS011;14177;51.520;6.764;2023-05-07T12:28:37;3.08;;;1.42;;
26502;SDS011;14177;51.520;6.764;2023-05-07T12:31:05;3.35;;;1.33;;
26502;SDS011;14177;51.520;6.764;2023-05-07T12:33:34;8.77;;;1.55;;
26502;SDS011;14177;51.520;6.764;2023-05-07T12:36:05;2.75;;;1.33;;
26502;SDS011;14177;51.520;6.764;2023-05-07T12:38:35;4.03;;;1.55;;
26502;SDS011;14177;51.520;6.764;2023-05-07T12:41:07;3.95;;;1.50;;
26502;SDS011;14177;51.520;6.764;2023-05-07T12:43:36;4.13;;;1.50;;
26502;SDS011;14177;51.520;6.764;2023-05-07T12:46:05;5.18;;;1.52;;
26502;SDS011;14177;51.520;6.764;2023-05-07T12:48:35;3.80;;;1.77;;
26502;SDS011;14177;51.520;6.764;2023-05-07T12:51:04;2.08;;;1.45;;
26502;SDS011;14177;51.520;6.764;2023-05-07T12:53:33;3.05;;;1.67;;
26502;SDS011;14177;51.520;6.764;2023-05-07T12:56:10;5.18;;;1.80;;
26502;SDS011;14177;51.520;6.764;2023-05-07T12:58:37;4.45;;;1.60;;
26502;SDS011;14177;51.520;6.764;2023-05-07T13:01:05;4.05;;;1.60;;
26502;SDS011;14177;51.520;6.764;2023-05-07T13:03:35;3.22;;;1.60;;
26502;SDS011;14177;51.520;6.764;2023-05-07T13:06:05;2.53;;;1.40;;
26502;SDS011;14177;51.520;6.764;2023-05-07T13:08:41;1.77;;;1.27;;
26502;SDS011;14177;51.520;6.764;2023-05-07T13:11:11;3.92;;;1.85;;
26502;SDS011;14177;51.520;6.764;2023-05-07T13:13:39;3.28;;;1.27;;
26502;SDS011;14177;51.520;6.764;2023-05-07T13:16:08;3.13;;;1.60;;
26502;SDS011;14177;51.520;6.764;2023-05-07T13:18:38;2.60;;;1.60;;
26502;SDS011;14177;51.520;6.764;2023-05-07T13:21:06;6.78;;;2.15;;
26502;SDS011;14177;51.520;6.764;2023-05-07T13:23:34;4.07;;;1.80;;
26502;SDS011;14177;51.520;6.764;2023-05-07T13:26:01;5.05;;;1.80;;
26502;SDS011;14177;51.520;6.764;2023-05-07T13:28:37;3.65;;;1.55;;
26502;SDS011;14177;51.520;6.764;2023-05-07T13:31:04;2.60;;;1.70;;
26502;SDS011;14177;51.520;6.764;2023-05-07T13:33:31;5.82;;;2.33;;
26502;SDS011;14177;51.520;6.764;2023-05-07T13:35:58;4.45;;;2.30;;
26502;SDS011;14177;51.520;6.764;2023-05-07T13:38:26;6.50;;;2.72;;
26502;SDS011;14177;51.520;6.764;2023-05-07T13:40:53;6.32;;;3.10;;
26502;SDS011;14177;51.520;6.764;2023-05-07T13:43:20;6.20;;;3.33;;
26502;SDS011;14177;51.520;6.764;2023-05-07T13:45:47;5.00;;;3.72;;
26502;SDS011;14177;51.520;6.764;2023-05-07T13:48:14;6.00;;;3.65;;
26502;SDS011;14177;51.520;6.764;2023-05-07T13:50:41;6.57;;;3.80;;
26502;SDS011;14177;51.520;6.764;2023-05-07T13:53:08;6.03;;;3.90;;
26502;SDS011;14177;51.520;6.764;2023-05-07T13:55:35;5.45;;;3.20;;
26502;SDS011;14177;51.520;6.764;2023-05-07T13:58:02;7.47;;;3.92;;
26502;SDS011;14177;51.520;6.764;2023-05-07T14:00:32;5.63;;;3.80;;
26502;SDS011;14177;51.520;6.764;2023-05-07T14:02:59;8.35;;;4.03;;
26502;SDS011;14177;51.520;6.764;2023-05-07T14:05:26;5.28;;;4.00;;
26502;SDS011;14177;51.520;6.764;2023-05-07T14:07:54;6.25;;;4.50;;
26502;SDS011;14177;51.520;6.764;2023-05-07T14:10:24;5.57;;;3.53;;
26502;SDS011;14177;51.520;6.764;2023-05-07T14:12:51;5.63;;;3.40;;
26502;SDS011;14177;51.520;6.764;2023-05-07T14:15:19;8.27;;;3.60;;
26502;SDS011;14177;51.520;6.764;2023-05-07T14:17:46;5.47;;;3.70;;
26502;SDS011;14177;51.520;6.764;2023-05-07T14:20:23;5.10;;;4.25;;
26502;SDS011;14177;51.520;6.764;2023-05-07T14:22:51;4.32;;;3.35;;
26502;SDS011;14177;51.520;6.764;2023-05-07T14:25:18;5.43;;;3.90;;
26502;SDS011;14177;51.520;6.764;2023-05-07T14:27:49;5.00;;;3.60;;
26502;SDS011;14177;51.520;6.764;2023-05-07T14:30:16;5.75;;;3.85;;
26502;SDS011;14177;51.520;6.764;2023-05-07T14:32:43;8.48;;;3.85;;
26502;SDS011;14177;51.520;6.764;2023-05-07T14:35:10;9.55;;;4.18;;
26502;SDS011;14177;51.520;6.764;2023-05-07T14:37:37;7.30;;;4.05;;
26502;SDS011;14177;51.520;6.764;2023-05-07T14:40:04;6.40;;;3.95;;
26502;SDS011;14177;51.520;6.764;2023-05-07T14:42:32;8.13;;;4.68;;
26502;SDS011;14177;51.520;6.764;2023-05-07T14:44:59;8.02;;;4.40;;
26502;SDS011;14177;51.520;6.764;2023-05-07T14:47:26;8.02;;;4.10;;
26502;SDS011;14177;51.520;6.764;2023-05-07T14:49:53;8.90;;;4.20;;
26502;SDS011;14177;51.520;6.764;2023-05-07T14:52:20;7.88;;;4.05;;
26502;SDS011;14177;51.520;6.764;2023-05-07T14:54:47;6.35;;;4.03;;
26502;SDS011;14177;51.520;6.764;2023-05-07T14:57:14;7.82;;;4.72;;
26502;SDS011;14177;51.520;6.764;2023-05-07T14:59:45;7.68;;;4.28;;
26502;SDS011;14177;51.520;6.764;2023-05-07T15:02:13;7.00;;;4.45;;
26502;SDS011;14177;51.520;6.764;2023-05-07T15:04:40;9.18;;;4.30;;
26502;SDS011;14177;51.520;6.764;2023-05-07T15:07:12;8.10;;;4.65;;
26502;SDS011;14177;51.520;6.764;2023-05-07T15:09:41;8.77;;;5.20;;
26502;SDS011;14177;51.520;6.764;2023-05-07T15:12:09;9.68;;;4.72;;
26502;SDS011;14177;51.520;6.764;2023-05-07T15:14:37;8.68;;;4.47;;
26502;SDS011;14177;51.520;6.764;2023-05-07T15:17:05;9.20;;;4.85;;
26502;SDS011;14177;51.520;6.764;2023-05-07T15:19:33;7.40;;;5.03;;
26502;SDS011;14177;51.520;6.764;2023-05-07T15:22:00;10.10;;;5.00;;